Time;durP1;ratioP1;P1;durP2;ratioP2;P2;SDS_P1;SDS_P2;PMS_P1;PMS_P2;Temp;Humidity;BMP_temperature;BMP_pressure;BME280_temperature;BME280_humidity;BME280_pressure;Samples;Min_cycle;Max_cycle;Signal;HPM_P1;HPM_P2
2023/04/06 00:01:38;;;;;;;12.68;6.35;;;;;;;;;;5065278;28;20032;-72
2023/04/06 00:04:03;;;;;;;14.43;6.68;;;;;;;;;;5068860;28;20027;-71
2023/04/06 00:06:28;;;;;;;14.85;6.28;;;;;;;;;;5082974;28;20034;-71
2023/04/06 00:08:54;;;;;;;11.50;6.57;;;;;;;;;;5072450;28;20032;-71
2023/04/06 00:11:19;;;;;;;12.60;6.25;;;;;;;;;;5068889;28;20020;-71
2023/04/06 00:13:45;;;;;;;12.40;6.07;;;;;;;;;;5050019;28;20028;-72
2023/04/06 00:16:10;;;;;;;14.48;6.95;;;;;;;;;;5065814;28;20051;-72
2023/04/06 00:18:35;;;;;;;12.13;7.07;;;;;;;;;;5068142;28;20038;-72
2023/04/06 00:21:00;;;;;;;13.13;6.20;;;;;;;;;;5067256;28;20469;-71
2023/04/06 00:23:26;;;;;;;11.73;6.35;;;;;;;;;;5083130;28;20369;-71
2023/04/06 00:25:51;;;;;;;23.90;8.20;;;;;;;;;;5052052;28;20021;-71
2023/04/06 00:28:17;;;;;;;15.80;7.72;;;;;;;;;;5070074;28;20752;-71
2023/04/06 00:30:42;;;;;;;20.33;8.43;;;;;;;;;;5064255;28;20032;-71
2023/04/06 00:33:07;;;;;;;38.20;13.18;;;;;;;;;;5066951;28;20036;-72
2023/04/06 00:35:34;;;;;;;17.42;8.25;;;;;;;;;;5065811;28;20044;-72
2023/04/06 00:37:59;;;;;;;22.60;10.27;;;;;;;;;;5064008;28;20059;-72
2023/04/06 00:40:25;;;;;;;12.65;6.68;;;;;;;;;;5062723;28;20071;-71
2023/04/06 00:42:50;;;;;;;12.57;6.53;;;;;;;;;;5046442;28;20037;-72
2023/04/06 00:45:15;;;;;;;12.63;6.70;;;;;;;;;;5065030;28;20139;-71
2023/04/06 00:47:40;;;;;;;12.15;6.80;;;;;;;;;;5068799;28;20281;-71
2023/04/06 00:50:06;;;;;;;12.25;6.13;;;;;;;;;;5080888;28;20039;-71
2023/04/06 00:52:31;;;;;;;12.02;6.25;;;;;;;;;;5074615;28;20024;-71
2023/04/06 00:54:57;;;;;;;11.02;6.28;;;;;;;;;;5068436;28;20873;-71
2023/04/06 00:57:22;;;;;;;11.63;5.72;;;;;;;;;;5072112;28;20036;-71
2023/04/06 00:59:47;;;;;;;11.15;6.03;;;;;;;;;;5063503;28;20044;-71
2023/04/06 01:02:13;;;;;;;11.88;6.18;;;;;;;;;;5050145;28;20565;-71
2023/04/06 01:04:38;;;;;;;12.02;6.07;;;;;;;;;;5047633;28;20083;-71
2023/04/06 01:07:03;;;;;;;10.97;5.77;;;;;;;;;;5047961;28;20107;-71
2023/04/06 01:09:29;;;;;;;11.75;6.47;;;;;;;;;;5053045;28;20853;-71
2023/04/06 01:11:56;;;;;;;12.07;6.18;;;;;;;;;;5062290;28;20029;-72
2023/04/06 01:14:21;;;;;;;11.10;6.13;;;;;;;;;;5069582;28;20396;-71
2023/04/06 01:16:47;;;;;;;14.00;6.57;;;;;;;;;;5067841;28;20067;-71
2023/04/06 01:19:13;;;;;;;11.50;6.35;;;;;;;;;;5069279;28;20103;-71
2023/04/06 01:21:39;;;;;;;13.73;6.43;;;;;;;;;;5063823;28;20434;-71
2023/04/06 01:24:05;;;;;;;12.57;6.35;;;;;;;;;;5052515;28;20036;-71
2023/04/06 01:26:30;;;;;;;13.18;6.70;;;;;;;;;;5064456;28;20029;-70
2023/04/06 01:28:56;;;;;;;16.00;7.32;;;;;;;;;;5065742;28;20029;-71
2023/04/06 01:31:21;;;;;;;16.60;7.10;;;;;;;;;;5049798;28;20387;-71
2023/04/06 01:33:46;;;;;;;15.20;7.00;;;;;;;;;;5067017;28;20078;-70
2023/04/06 01:36:12;;;;;;;14.50;6.78;;;;;;;;;;5064420;28;20078;-72
2023/04/06 01:38:37;;;;;;;15.75;7.03;;;;;;;;;;5067426;28;20021;-72
2023/04/06 01:41:02;;;;;;;15.20;7.57;;;;;;;;;;5067213;28;20032;-72
2023/04/06 01:43:27;;;;;;;17.10;7.27;;;;;;;;;;5049511;28;20604;-72
2023/04/06 01:45:53;;;;;;;13.77;7.20;;;;;;;;;;5068539;28;20269;-72
2023/04/06 01:48:18;;;;;;;12.98;7.28;;;;;;;;;;5068919;28;20618;-72
2023/04/06 01:50:43;;;;;;;15.82;7.25;;;;;;;;;;5064233;28;20029;-72
2023/04/06 01:53:09;;;;;;;13.20;6.87;;;;;;;;;;5061928;28;20450;-72
2023/04/06 01:55:34;;;;;;;15.07;7.20;;;;;;;;;;5062188;28;20292;-72
2023/04/06 01:58:00;;;;;;;11.88;6.60;;;;;;;;;;5066854;28;20035;-72
2023/04/06 02:00:25;;;;;;;15.07;7.40;;;;;;;;;;5055860;28;20033;-72
2023/04/06 02:02:50;;;;;;;12.03;6.23;;;;;;;;;;5062879;28;20284;-71
2023/04/06 02:05:15;;;;;;;15.63;7.13;;;;;;;;;;5062516;28;20373;-72
2023/04/06 02:07:41;;;;;;;12.45;6.70;;;;;;;;;;5074918;28;20040;-72
2023/04/06 02:10:11;;;;;;;13.00;6.82;;;;;;;;;;5048327;28;20071;-73
2023/04/06 02:12:36;;;;;;;14.23;6.78;;;;;;;;;;5065110;28;20280;-72
2023/04/06 02:15:01;;;;;;;12.30;6.77;;;;;;;;;;5065535;28;20032;-72
2023/04/06 02:17:26;;;;;;;15.02;7.25;;;;;;;;;;5065362;28;20297;-73
2023/04/06 02:19:52;;;;;;;15.97;8.17;;;;;;;;;;5068593;28;20035;-72
2023/04/06 02:22:17;;;;;;;17.48;8.10;;;;;;;;;;5068260;28;20285;-71
2023/04/06 02:24:42;;;;;;;16.73;8.00;;;;;;;;;;5061160;28;20029;-71
2023/04/06 02:27:08;;;;;;;15.77;8.27;;;;;;;;;;5044617;28;20686;-72
2023/04/06 02:29:33;;;;;;;15.73;8.38;;;;;;;;;;5061835;28;20289;-72
2023/04/06 02:31:58;;;;;;;21.07;10.57;;;;;;;;;;5067158;28;20787;-71
2023/04/06 02:34:24;;;;;;;17.85;9.07;;;;;;;;;;5068395;28;20280;-72
2023/04/06 02:36:49;;;;;;;16.88;8.85;;;;;;;;;;5068354;28;20090;-71
2023/04/06 02:39:14;;;;;;;15.32;7.60;;;;;;;;;;5087911;28;20509;-71
2023/04/06 02:41:40;;;;;;;13.00;7.07;;;;;;;;;;5053221;28;20388;-72
2023/04/06 02:44:08;;;;;;;15.48;7.63;;;;;;;;;;5063826;28;20119;-71
2023/04/06 02:46:34;;;;;;;15.13;6.80;;;;;;;;;;5068749;28;20028;-72
2023/04/06 02:49:00;;;;;;;20.23;7.78;;;;;;;;;;5066087;28;20482;-71
2023/04/06 02:51:25;;;;;;;12.48;6.90;;;;;;;;;;5066663;28;20040;-66
2023/04/06 02:53:51;;;;;;;14.02;7.45;;;;;;;;;;5056589;28;20017;-66
2023/04/06 02:56:16;;;;;;;13.77;7.40;;;;;;;;;;5058710;28;20075;-67
2023/04/06 02:58:41;;;;;;;14.60;7.25;;;;;;;;;;5063597;28;20041;-66
2023/04/06 03:01:06;;;;;;;14.73;7.45;;;;;;;;;;5067014;28;20020;-65
2023/04/06 03:03:32;;;;;;;15.10;7.10;;;;;;;;;;5062494;28;20025;-65
2023/04/06 03:05:58;;;;;;;16.02;7.45;;;;;;;;;;5059723;28;20308;-67
2023/04/06 03:08:23;;;;;;;14.73;7.13;;;;;;;;;;5037806;28;20086;-68
2023/04/06 03:10:49;;;;;;;14.32;7.47;;;;;;;;;;5064249;28;20391;-67
2023/04/06 03:13:14;;;;;;;19.85;8.45;;;;;;;;;;5063332;28;20139;-67
2023/04/06 03:15:40;;;;;;;16.50;8.10;;;;;;;;;;5049577;28;20044;-67
2023/04/06 03:18:05;;;;;;;16.70;7.25;;;;;;;;;;5046303;28;20020;-66
2023/04/06 03:20:30;;;;;;;16.50;7.53;;;;;;;;;;5038183;28;20025;-66
2023/04/06 03:22:56;;;;;;;14.43;7.13;;;;;;;;;;5042981;28;20347;-67
2023/04/06 03:25:21;;;;;;;16.75;8.63;;;;;;;;;;5046746;28;21143;-66
2023/04/06 03:27:46;;;;;;;12.77;7.07;;;;;;;;;;5049406;28;20017;-67
2023/04/06 03:30:12;;;;;;;15.20;8.00;;;;;;;;;;5049074;28;20273;-65
2023/04/06 03:32:37;;;;;;;16.45;7.03;;;;;;;;;;5047304;28;20282;-66
2023/04/06 03:35:03;;;;;;;13.40;7.00;;;;;;;;;;5046146;28;20021;-66
2023/04/06 03:37:28;;;;;;;16.10;7.07;;;;;;;;;;5045609;28;20060;-66
2023/04/06 03:39:53;;;;;;;13.90;6.47;;;;;;;;;;5046381;28;20024;-65
2023/04/06 03:42:18;;;;;;;15.13;6.88;;;;;;;;;;5040104;28;21087;-65
2023/04/06 03:44:44;;;;;;;15.87;6.93;;;;;;;;;;5044198;28;20139;-66
2023/04/06 03:47:09;;;;;;;16.25;8.70;;;;;;;;;;5042601;28;20282;-66
2023/04/06 03:49:35;;;;;;;12.32;6.65;;;;;;;;;;5043797;28;20578;-67
2023/04/06 03:52:01;;;;;;;12.32;7.28;;;;;;;;;;5047192;28;20037;-66
2023/04/06 03:54:26;;;;;;;16.52;7.60;;;;;;;;;;5052203;28;20711;-66
2023/04/06 03:56:51;;;;;;;24.90;10.73;;;;;;;;;;5046416;28;20048;-66
2023/04/06 03:59:16;;;;;;;18.80;8.67;;;;;;;;;;5048630;28;20025;-69
2023/04/06 04:01:42;;;;;;;18.53;9.33;;;;;;;;;;5047782;28;20274;-69
2023/04/06 04:04:07;;;;;;;29.30;12.03;;;;;;;;;;5046209;28;20288;-72
2023/04/06 04:06:32;;;;;;;19.08;10.10;;;;;;;;;;5048688;28;20273;-70
2023/04/06 04:08:58;;;;;;;21.93;9.70;;;;;;;;;;5045009;28;20017;-69
2023/04/06 04:11:23;;;;;;;16.40;7.97;;;;;;;;;;5047060;28;20285;-70
2023/04/06 04:13:48;;;;;;;15.32;7.55;;;;;;;;;;5045080;28;20053;-70
2023/04/06 04:16:14;;;;;;;16.92;8.30;;;;;;;;;;5040648;28;20051;-71
2023/04/06 04:18:39;;;;;;;21.95;8.10;;;;;;;;;;5042680;28;20087;-70
2023/04/06 04:21:04;;;;;;;20.23;8.65;;;;;;;;;;5047529;28;20104;-74
2023/04/06 04:23:30;;;;;;;15.98;8.15;;;;;;;;;;5048583;28;20037;-75
2023/04/06 04:25:55;;;;;;;14.98;7.95;;;;;;;;;;5051092;28;20064;-72
2023/04/06 04:28:20;;;;;;;18.77;7.90;;;;;;;;;;5044831;28;20116;-75
2023/04/06 04:30:46;;;;;;;17.23;7.80;;;;;;;;;;5045005;28;20410;-75
2023/04/06 04:33:11;;;;;;;16.92;7.70;;;;;;;;;;5059911;28;20696;-74
2023/04/06 04:35:36;;;;;;;20.07;7.80;;;;;;;;;;5045485;28;20104;-74
2023/04/06 04:38:01;;;;;;;20.63;10.75;;;;;;;;;;5044557;28;20289;-74
2023/04/06 04:40:27;;;;;;;24.70;9.60;;;;;;;;;;5044280;28;20210;-75
2023/04/06 04:42:52;;;;;;;14.30;6.85;;;;;;;;;;5043753;28;20356;-74
2023/04/06 04:45:17;;;;;;;17.63;8.17;;;;;;;;;;5041497;28;20029;-73
2023/04/06 04:47:43;;;;;;;20.83;8.70;;;;;;;;;;5048686;28;20273;-74
2023/04/06 04:50:08;;;;;;;23.83;8.90;;;;;;;;;;5049676;28;20376;-74
2023/04/06 04:52:34;;;;;;;15.43;7.63;;;;;;;;;;5036384;28;20284;-74
2023/04/06 04:54:59;;;;;;;19.17;8.53;;;;;;;;;;5041878;28;20028;-74
2023/04/06 04:57:24;;;;;;;14.10;7.33;;;;;;;;;;5048283;28;20286;-76
2023/04/06 04:59:50;;;;;;;14.90;7.75;;;;;;;;;;5047952;28;20270;-74
2023/04/06 05:02:16;;;;;;;25.58;7.60;;;;;;;;;;5041320;28;20025;-74
2023/04/06 05:04:41;;;;;;;18.55;7.55;;;;;;;;;;5039838;28;20040;-75
2023/04/06 05:07:07;;;;;;;15.00;6.68;;;;;;;;;;5039930;28;20025;-74
2023/04/06 05:09:32;;;;;;;16.45;7.15;;;;;;;;;;5039901;28;20032;-74
2023/04/06 05:11:58;;;;;;;16.15;7.68;;;;;;;;;;5038648;28;20021;-74
2023/04/06 05:14:24;;;;;;;16.88;7.18;;;;;;;;;;5047071;28;20216;-73
2023/04/06 05:16:50;;;;;;;19.20;8.65;;;;;;;;;;5038621;28;20095;-75
2023/04/06 05:19:15;;;;;;;16.77;7.47;;;;;;;;;;5045389;28;20036;-75
2023/04/06 05:21:41;;;;;;;19.67;7.63;;;;;;;;;;5045151;28;20032;-74
2023/04/06 05:24:06;;;;;;;16.98;7.97;;;;;;;;;;5045266;28;20037;-76
2023/04/06 05:26:32;;;;;;;16.10;7.75;;;;;;;;;;5048438;28;20040;-74
2023/04/06 05:28:57;;;;;;;20.65;8.95;;;;;;;;;;5048274;28;20035;-73
2023/04/06 05:31:23;;;;;;;15.85;7.68;;;;;;;;;;5040345;28;20476;-74
2023/04/06 05:33:48;;;;;;;14.88;7.25;;;;;;;;;;5035820;28;20058;-74
2023/04/06 05:36:13;;;;;;;14.77;7.47;;;;;;;;;;5040945;28;20029;-75
2023/04/06 05:38:38;;;;;;;15.67;6.93;;;;;;;;;;5038074;28;20031;-75
2023/04/06 05:41:04;;;;;;;16.20;7.80;;;;;;;;;;5040412;28;20780;-74
2023/04/06 05:43:29;;;;;;;13.93;6.63;;;;;;;;;;5042577;28;20301;-75
2023/04/06 05:45:54;;;;;;;12.37;7.13;;;;;;;;;;5039709;28;20284;-75
2023/04/06 05:48:20;;;;;;;13.10;6.60;;;;;;;1.18;nan;100523.44;5042575;28;20847;-75
2023/04/06 05:50:49;;;;;;;16.83;7.70;;;;;;;;;;5043946;28;20036;-74
2023/04/06 05:53:15;;;;;;;22.48;8.50;;;;;;;;;;5039897;28;22302;-75
2023/04/06 05:55:41;;;;;;;16.10;7.80;;;;;;;;;;5043274;28;20044;-73
2023/04/06 05:58:06;;;;;;;16.90;7.35;;;;;;;;;;5042665;28;20113;-73
2023/04/06 06:00:31;;;;;;;13.23;7.05;;;;;;;;;;5035659;28;20029;-73
2023/04/06 06:02:56;;;;;;;15.30;7.30;;;;;;;;;;5037718;28;20675;-72
2023/04/06 06:05:22;;;;;;;15.38;7.97;;;;;;;;;;5042618;28;20033;-74
2023/04/06 06:07:47;;;;;;;23.13;9.75;;;;;;;;;;5042371;28;20033;-74
2023/04/06 06:10:12;;;;;;;30.08;11.10;;;;;;;;;;5042611;28;20510;-74
2023/04/06 06:12:38;;;;;;;18.15;8.50;;;;;;;;;;5044701;28;20079;-74
2023/04/06 06:15:03;;;;;;;18.10;7.75;;;;;;;;;;5047051;28;20621;-74
2023/04/06 06:17:28;;;;;;;15.43;8.00;;;;;;;;;;5049402;28;20103;-73
2023/04/06 06:19:54;;;;;;;17.60;7.90;;;;;;;;;;5044095;28;20029;-73
2023/04/06 06:22:19;;;;;;;14.02;7.55;;;;;;;;;;5040420;28;20029;-74
2023/04/06 06:24:45;;;;;;;15.05;7.50;;;;;;;;;;5045096;28;20036;-74
2023/04/06 06:27:10;;;;;;;16.77;8.15;;;;;;;;;;5037130;28;20416;-74
2023/04/06 06:29:35;;;;;;;17.42;8.65;;;;;;;;;;5038254;28;20052;-74
2023/04/06 06:32:00;;;;;;;13.53;7.87;;;;;;;;;;5042368;28;20541;-74
2023/04/06 06:34:26;;;;;;;16.17;8.02;;;;;;;;;;5043710;28;20274;-74
2023/04/06 06:36:51;;;;;;;17.95;7.60;;;;;;;;;;5048317;28;20044;-73
2023/04/06 06:39:17;;;;;;;20.02;8.43;;;;;;;;;;5049930;28;20689;-73
2023/04/06 06:41:42;;;;;;;15.15;7.60;;;;;;;;;;5051180;28;20387;-74
2023/04/06 06:44:07;;;;;;;20.90;9.33;;;;;;;;;;5043209;28;20020;-74
2023/04/06 06:46:32;;;;;;;17.13;8.37;;;;;;;;;;5046665;28;20800;-74
2023/04/06 06:48:58;;;;;;;17.23;7.33;;;;;;;;;;5043901;28;20329;-74
2023/04/06 06:51:24;;;;;;;14.82;7.10;;;;;;;;;;5049571;28;20359;-74
2023/04/06 06:53:49;;;;;;;12.23;6.13;;;;;;;;;;5047776;28;20031;-74
2023/04/06 06:56:14;;;;;;;11.00;6.70;;;;;;;;;;5048208;28;20029;-74
2023/04/06 06:58:40;;;;;;;12.90;6.38;;;;;;;;;;5049335;28;20028;-74
2023/04/06 07:01:06;;;;;;;12.05;6.63;;;;;;;;;;5054436;28;20031;-74
2023/04/06 07:03:31;;;;;;;14.65;6.70;;;;;;;;;;5050561;28;20025;-74
2023/04/06 07:05:56;;;;;;;9.83;5.70;;;;;;;;;;5054940;28;20063;-72
2023/04/06 07:08:22;;;;;;;12.65;6.28;;;;;;;;;;5050829;28;20282;-72
2023/04/06 07:10:48;;;;;;;11.38;6.22;;;;;;;;;;5062715;28;20064;-75
2023/04/06 07:13:18;;;;;;;11.98;6.57;;;;;;;;;;5045447;28;20025;-71
2023/04/06 07:15:43;;;;;;;12.13;6.63;;;;;;;;;;5051563;28;20055;-71
2023/04/06 07:18:08;;;;;;;11.90;6.15;;;;;;;;;;5064919;28;20032;-71
2023/04/06 07:20:34;;;;;;;14.87;7.17;;;;;;;;;;5067878;28;20032;-72
2023/04/06 07:22:59;;;;;;;19.53;7.30;;;;;;;;;;5063750;28;20368;-72
2023/04/06 07:25:24;;;;;;;16.45;7.80;;;;;;;;;;5061527;28;20330;-72
2023/04/06 07:27:50;;;;;;;12.27;7.10;;;;;;;;;;5063791;28;20024;-72
2023/04/06 07:30:15;;;;;;;13.05;6.80;;;;;;;;;;5053460;28;20092;-72
2023/04/06 07:32:40;;;;;;;15.02;7.25;;;;;;;;;;5066108;28;20107;-72
2023/04/06 07:35:06;;;;;;;12.70;7.23;;;;;;;;;;5069759;28;20120;-72
2023/04/06 07:37:31;;;;;;;14.30;7.45;;;;;;;;;;5053974;28;20274;-72
2023/04/06 07:39:56;;;;;;;15.20;6.97;;;;;;;;;;5068702;28;20078;-72
2023/04/06 07:42:22;;;;;;;12.73;6.88;;;;;;;;;;5053457;28;20058;-72
2023/04/06 07:44:48;;;;;;;12.77;6.75;;;;;;;;;;5053556;28;20032;-73
2023/04/06 07:47:13;;;;;;;13.32;6.60;;;;;;;;;;5052022;28;20021;-73
2023/04/06 07:49:38;;;;;;;14.17;7.07;;;;;;;;;;5065494;28;20156;-73
2023/04/06 07:52:03;;;;;;;15.50;7.43;;;;;;;;;;5063794;28;20656;-73
2023/04/06 07:54:29;;;;;;;14.68;6.95;;;;;;;;;;5054666;28;20051;-73
2023/04/06 07:56:54;;;;;;;12.85;6.45;;;;;;;;;;5072964;28;20436;-73
2023/04/06 07:59:19;;;;;;;13.47;6.87;;;;;;;;;;5073434;28;20029;-73
2023/04/06 08:01:45;;;;;;;11.07;7.03;;;;;;;;;;5069307;28;20785;-73
2023/04/06 08:04:10;;;;;;;15.55;7.43;;;;;;;;;;5061843;28;20028;-73
2023/04/06 08:06:36;;;;;;;16.40;7.60;;;;;;;;;;5052787;28;20021;-72
2023/04/06 08:09:01;;;;;;;14.85;7.22;;;;;;;;;;5067961;28;20368;-73
2023/04/06 08:11:27;;;;;;;11.30;6.55;;;;;;;;;;5060857;28;20031;-71
2023/04/06 08:13:52;;;;;;;19.83;7.72;;;;;;;;;;5062385;28;20416;-72
2023/04/06 08:16:18;;;;;;;14.70;7.70;;;;;;;;;;5079143;28;20861;-73
2023/04/06 08:18:43;;;;;;;16.92;7.60;;;;;;;;;;5061213;28;20426;-72
2023/04/06 08:21:09;;;;;;;15.27;7.20;;;;;;;;;;5060064;28;20039;-72
2023/04/06 08:23:34;;;;;;;13.95;6.93;;;;;;;;;;5067397;28;20568;-73
2023/04/06 08:25:59;;;;;;;18.70;8.10;;;;;;;;;;5064804;28;20741;-72
2023/04/06 08:28:24;;;;;;;13.27;7.43;;;;;;;;;;5067769;28;20311;-74
2023/04/06 08:30:50;;;;;;;14.90;6.90;;;;;;;;;;5079227;28;20312;-71
2023/04/06 08:33:15;;;;;;;14.13;7.20;;;;;;;;;;5064559;28;20035;-72
2023/04/06 08:35:40;;;;;;;14.68;7.75;;;;;;;;;;5065455;28;20029;-72
2023/04/06 08:38:06;;;;;;;15.48;7.95;;;;;;;;;;5078947;28;20033;-74
2023/04/06 08:40:36;;;;;;;18.83;7.60;;;;;;;;;;5042193;28;20033;-72
2023/04/06 08:43:03;;;;;;;15.48;7.45;;;;;;;;;;5060910;28;20025;-72
2023/04/06 08:45:29;;;;;;;20.88;8.18;;;;;;;;;;5058559;28;20063;-72
2023/04/06 08:47:56;;;;;;;17.42;7.82;;;;;;;;;;5053078;28;20063;-72
2023/04/06 08:50:23;;;;;;;18.40;8.20;;;;;;;;;;5048166;28;20055;-72
2023/04/06 08:52:49;;;;;;;16.80;7.65;;;;;;;;;;5062650;28;20425;-72
2023/04/06 08:55:15;;;;;;;19.83;8.50;;;;;;;;;;5067765;28;20024;-72
2023/04/06 08:57:40;;;;;;;26.83;10.45;;;;;;;;;;5065513;28;20077;-73
2023/04/06 09:00:07;;;;;;;26.13;9.45;;;;;;;;;;5080315;28;20032;-71
2023/04/06 09:02:32;;;;;;;20.33;8.52;;;;;;;;;;5060246;28;20036;-72
2023/04/06 09:04:58;;;;;;;12.80;6.78;;;;;;;;;;5049879;28;20029;-73
2023/04/06 09:07:24;;;;;;;25.35;11.80;;;;;;;;;;5044419;28;20036;-75
2023/04/06 09:09:51;;;;;;;20.70;10.05;;;;;;;;;;5062473;28;20028;-72
2023/04/06 09:12:22;;;;;;;12.90;7.70;;;;;;;;;;5061425;28;20031;-72
2023/04/06 09:14:48;;;;;;;13.38;7.60;;;;;;;;;;5063756;28;20024;-73
2023/04/06 09:17:23;;;;;;;13.27;6.28;;;;;;;;;;5069535;28;20068;-73
2023/04/06 09:19:48;;;;;;;17.73;7.63;;;;;;;;;;5062965;28;20045;-73
2023/04/06 09:22:14;;;;;;;14.25;7.47;;;;;;;;;;5065658;28;20016;-71
2023/04/06 09:24:46;;;;;;;16.05;7.70;;;;;;;;;;5042278;28;20189;-71
2023/04/06 09:27:11;;;;;;;14.48;7.93;;;;;;;;;;5083117;28;20017;-72
2023/04/06 09:29:37;;;;;;;14.45;6.68;;;;;;;;;;5047904;28;20471;-72
2023/04/06 09:32:06;;;;;;;14.27;8.13;;;;;;;;;;5039497;28;20020;-72
2023/04/06 09:34:31;;;;;;;15.18;7.38;;;;;;;;;;5056071;28;20111;-71
2023/04/06 09:36:58;;;;;;;13.75;7.65;;;;;;;;;;5060837;28;20554;-73
2023/04/06 09:39:23;;;;;;;16.80;8.65;;;;;;;;;;5054137;28;20550;-73
2023/04/06 09:41:50;;;;;;;14.35;8.32;;;;;;;;;;5058915;28;20035;-70
2023/04/06 09:44:15;;;;;;;14.80;7.00;;;;;;;;;;5056383;28;20150;-72
2023/04/06 09:46:41;;;;;;;14.40;7.53;;;;;;;;;;5060784;28;20138;-72
2023/04/06 09:49:08;;;;;;;16.42;7.90;;;;;;;;;;5047797;28;20035;-74
2023/04/06 09:51:47;;;;;;;14.15;7.57;;;;;;;;;;5051087;28;20140;-74
2023/04/06 09:54:15;;;;;;;19.52;8.95;;;;;;;;;;5061258;28;20044;-74
2023/04/06 09:56:45;;;;;;;22.25;9.68;;;;;;;;;;5063295;28;20031;-73
2023/04/06 09:59:16;;;;;;;16.30;8.35;;;;;;;;;;5060827;28;20036;-70
2023/04/06 10:01:42;;;;;;;16.50;8.07;;;;;;;;;;5061605;28;20073;-69
2023/04/06 10:04:08;;;;;;;14.05;8.07;;;;;;;;;;5070995;28;20589;-72
2023/04/06 10:06:35;;;;;;;18.13;8.63;;;;;;;;;;5065392;28;20047;-73
2023/04/06 10:09:01;;;;;;;15.52;8.05;;;;;;;;;;5043113;28;20737;-71
2023/04/06 10:11:27;;;;;;;17.25;8.30;;;;;;;;;;5049936;28;20046;-70
2023/04/06 10:13:52;;;;;;;18.52;8.65;;;;;;;;;;5070932;28;20098;-71
2023/04/06 10:16:18;;;;;;;13.48;7.55;;;;;;;;;;5051431;28;20044;-71
2023/04/06 10:18:46;;;;;;;18.20;8.63;;;;;;;;;;5060729;28;20479;-73
2023/04/06 10:21:12;;;;;;;14.38;8.20;;;;;;;;;;5068737;28;20035;-73
2023/04/06 10:23:47;;;;;;;12.05;7.32;;;;;;;;;;5064143;28;20070;-72
2023/04/06 10:26:16;;;;;;;25.15;11.73;;;;;;;;;;5060517;28;20020;-71
2023/04/06 10:28:42;;;;;;;18.13;8.60;;;;;;;;;;5059324;28;21322;-72
2023/04/06 10:31:07;;;;;;;22.33;9.35;;;;;;;;;;5062284;28;20033;-72
2023/04/06 10:33:33;;;;;;;15.95;8.13;;;;;;;;;;5062255;28;20063;-71
2023/04/06 10:36:08;;;;;;;14.95;7.95;;;;;;;;;;5051478;28;20051;-74
2023/04/06 10:38:35;;;;;;;16.60;8.25;;;;;;;;;;5063735;28;20532;-73
2023/04/06 10:41:03;;;;;;;14.18;7.65;;;;;;;;;;5063082;28;20055;-74
2023/04/06 10:43:32;;;;;;;13.23;8.00;;;;;;;;;;5066210;28;20028;-72
2023/04/06 10:46:00;;;;;;;13.40;7.22;;;;;;;;;;5067969;28;20035;-72
2023/04/06 10:48:35;;;;;;;17.17;7.97;;;;;;;;;;5059090;28;20051;-73
2023/04/06 10:51:01;;;;;;;15.73;8.93;;;;;;;;;;5058576;28;20434;-71
2023/04/06 10:53:27;;;;;;;16.52;7.93;;;;;;;;;;5046376;28;20071;-72
2023/04/06 10:55:54;;;;;;;16.60;7.60;;;;;;;;;;5052809;28;20390;-72
2023/04/06 10:58:19;;;;;;;13.52;7.90;;;;;;;;;;5035924;28;20386;-72
2023/04/06 11:00:45;;;;;;;12.68;7.43;;;;;;;;;;5061378;28;20032;-71
2023/04/06 11:03:10;;;;;;;18.23;9.20;;;;;;;;;;5049436;28;20024;-72
2023/04/06 11:05:35;;;;;;;17.23;7.30;;;;;;;;;;5061179;28;20041;-71
2023/04/06 11:08:01;;;;;;;17.08;8.50;;;;;;;;;;5056423;28;20039;-73
2023/04/06 11:10:26;;;;;;;13.20;7.75;;;;;;;;;;5059568;28;20611;-70
2023/04/06 11:12:54;;;;;;;16.80;8.32;;;;;;;;;;5069418;28;20037;-70
2023/04/06 11:15:20;;;;;;;20.33;8.35;;;;;;;;;;5064384;28;20050;-71
2023/04/06 11:17:45;;;;;;;13.35;8.18;;;;;;;;;;5044178;28;20538;-70
2023/04/06 11:20:11;;;;;;;17.73;8.60;;;;;;;;;;5036372;28;20117;-67
2023/04/06 11:22:36;;;;;;;16.70;9.45;;;;;;;;;;5043130;28;20044;-67
2023/04/06 11:25:06;;;;;;;16.58;8.65;;;;;;;;;;5037935;28;20040;-69
2023/04/06 11:27:32;;;;;;;17.45;8.75;;;;;;;;;;5038983;28;20087;-70
2023/04/06 11:29:58;;;;;;;14.98;8.07;;;;;;;;;;5045305;28;20429;-72
2023/04/06 11:32:24;;;;;;;13.93;7.70;;;;;;;;;;5042295;28;20029;-73
2023/04/06 11:34:49;;;;;;;15.88;7.97;;;;;;;;;;5044923;28;20029;-68
2023/04/06 11:37:15;;;;;;;17.05;7.97;;;;;;;;;;5046067;28;20032;-68
2023/04/06 11:39:51;;;;;;;14.70;7.82;;;;;;;;;;5045801;28;20395;-68
2023/04/06 11:42:23;;;;;;;16.55;8.23;;;;;;;;;;5047001;28;20033;-68
2023/04/06 11:44:50;;;;;;;21.27;9.30;;;;;;;;;;5044908;28;20386;-69
2023/04/06 11:47:16;;;;;;;18.25;9.23;;;;;;;;;;5042492;28;20049;-67
2023/04/06 11:49:42;;;;;;;21.02;10.73;;;;;;;;;;5045938;28;20494;-68
2023/04/06 11:52:20;;;;;;;23.50;10.18;;;;;;;;;;5047353;28;20444;-69
2023/04/06 11:54:47;;;;;;;17.40;9.02;;;;;;;;;;5043263;28;20033;-67
2023/04/06 11:57:12;;;;;;;18.67;9.93;;;;;;;;;;5047144;28;20093;-68
2023/04/06 11:59:38;;;;;;;22.67;11.00;;;;;;;;;;5049570;28;20490;-67
2023/04/06 12:02:03;;;;;;;16.80;9.50;;;;;;;;;;5045706;28;20028;-68
2023/04/06 12:04:29;;;;;;;19.20;10.10;;;;;;;;;;5050321;28;20366;-69
2023/04/06 12:06:54;;;;;;;26.80;13.32;;;;;;;;;;5046638;28;20035;-69
2023/04/06 12:09:20;;;;;;;20.13;10.65;;;;;;;;;;5045870;28;20060;-67
2023/04/06 12:11:45;;;;;;;17.55;9.10;;;;;;;;;;5040151;28;20060;-69
2023/04/06 12:14:11;;;;;;;14.65;8.20;;;;;;;;;;5046323;28;20047;-69
2023/04/06 12:16:36;;;;;;;15.65;8.48;;;;;;;;;;5057359;28;20052;-70
2023/04/06 12:19:01;;;;;;;13.43;8.38;;;;;;;;;;5067010;28;20196;-69
2023/04/06 12:21:28;;;;;;;13.53;8.10;;;;;;;;;;5061815;28;20508;-69
2023/04/06 12:23:53;;;;;;;15.73;8.18;;;;;;;;;;5059639;28;20285;-69
2023/04/06 12:26:18;;;;;;;17.38;8.40;;;;;;;;;;5044822;28;20032;-69
2023/04/06 12:28:44;;;;;;;13.73;8.23;;;;;;;;;;5073387;28;20482;-70
2023/04/06 12:31:16;;;;;;;20.92;9.18;;;;;;;;;;5054905;28;20173;-70
2023/04/06 12:33:42;;;;;;;13.48;8.00;;;;;;;;;;5049757;28;20040;-69
2023/04/06 12:36:14;;;;;;;14.90;8.60;;;;;;;;;;5061926;28;20029;-69
2023/04/06 12:38:40;;;;;;;13.55;8.57;;;;;;;;;;5061730;28;20040;-69
2023/04/06 12:41:06;;;;;;;14.35;8.25;;;;;;;;;;5063017;28;20032;-69
2023/04/06 12:43:31;;;;;;;15.05;8.57;;;;;;;;;;5060326;28;20028;-69
2023/04/06 12:45:56;;;;;;;15.47;8.80;;;;;;;;;;5062839;28;20481;-69
2023/04/06 12:48:22;;;;;;;15.20;8.03;;;;;;;;;;5051533;28;20029;-68
2023/04/06 12:50:54;;;;;;;13.32;7.97;;;;;;;;;;5047869;28;20281;-67
2023/04/06 12:53:19;;;;;;;12.98;7.90;;;;;;;;;;5064339;28;20082;-67
2023/04/06 12:55:44;;;;;;;16.73;8.87;;;;;;;;;;5063331;28;20025;-67
2023/04/06 12:58:10;;;;;;;16.45;9.57;;;;;;;;;;5067413;28;20280;-70
2023/04/06 13:00:35;;;;;;;14.57;9.27;;;;;;;;;;5069743;28;20039;-68
2023/04/06 13:03:01;;;;;;;15.27;8.65;;;;;;;;;;5066060;28;20111;-73
2023/04/06 13:05:26;;;;;;;18.17;9.07;;;;;;;;;;5060647;28;20036;-72
2023/04/06 13:07:51;;;;;;;17.00;9.00;;;;;;;;;;5061805;28;20047;-69
2023/04/06 13:10:17;;;;;;;21.33;10.88;;;;;;;;;;5060585;28;20826;-69
2023/04/06 13:12:42;;;;;;;17.52;10.80;;;;;;;;;;5065041;28;20162;-70
2023/04/06 13:15:07;;;;;;;20.43;10.47;;;;;;;;;;5048546;28;20168;-70
2023/04/06 13:17:33;;;;;;;21.50;12.82;;;;;;;;;;5053381;28;21104;-70
2023/04/06 13:19:58;;;;;;;21.77;12.80;;;;;;;;;;5064365;28;20518;-71
2023/04/06 13:22:23;;;;;;;14.77;9.43;;;;;;;;;;5063182;28;20308;-71
2023/04/06 13:24:48;;;;;;;16.38;9.48;;;;;;;;;;5074101;28;20099;-70
2023/04/06 13:27:14;;;;;;;19.00;9.45;;;;;;;;;;5045539;28;20024;-69
2023/04/06 13:29:39;;;;;;;16.95;9.57;;;;;;;;;;5057191;28;20031;-70
2023/04/06 13:32:05;;;;;;;16.63;9.18;;;;;;;;;;5045536;28;20044;-70
2023/04/06 13:34:30;;;;;;;15.80;9.68;;;;;;;;;;5042400;28;20032;-70
2023/04/06 13:36:55;;;;;;;15.77;9.52;;;;;;;;;;5060142;28;20067;-70
2023/04/06 13:39:21;;;;;;;15.43;9.40;;;;;;;;;;5061184;28;20035;-71
2023/04/06 13:41:46;;;;;;;17.40;10.03;;;;;;;;;;5078426;28;20048;-71
2023/04/06 13:44:11;;;;;;;23.27;9.87;;;;;;;;;;5062995;28;20286;-70
2023/04/06 13:46:37;;;;;;;17.48;10.02;;;;;;;;;;5066489;28;20631;-71
2023/04/06 13:49:02;;;;;;;17.40;8.93;;;;;;;;;;5061932;28;20032;-71
2023/04/06 13:51:27;;;;;;;16.08;9.18;;;;;;;;;;5059681;28;20146;-71
2023/04/06 13:53:53;;;;;;;18.83;8.63;;;;;;;;;;5052667;28;20078;-71
2023/04/06 13:56:18;;;;;;;16.95;9.63;;;;;;;;;;5077665;28;20032;-72
2023/04/06 13:58:44;;;;;;;15.53;9.80;;;;;;;;;;5046684;28;20040;-71
2023/04/06 14:01:09;;;;;;;16.20;9.65;;;;;;;;;;5059252;28;20316;-71
2023/04/06 14:03:35;;;;;;;18.05;9.40;;;;;;;;;;5063355;28;20033;-71
2023/04/06 14:06:00;;;;;;;15.73;9.68;;;;;;;;;;5061354;28;20051;-70
2023/04/06 14:08:25;;;;;;;14.23;9.15;;;;;;;;;;5048140;28;20032;-70
2023/04/06 14:10:51;;;;;;;17.95;10.45;;;;;;;;;;5050843;28;20119;-71
2023/04/06 14:13:17;;;;;;;17.75;9.40;;;;;;;;;;5082432;28;20116;-71
2023/04/06 14:15:42;;;;;;;16.42;10.50;;;;;;;;;;5069243;28;20611;-71
2023/04/06 14:18:08;;;;;;;20.42;10.88;;;;;;;;;;5053993;28;20410;-71
2023/04/06 14:20:34;;;;;;;16.63;10.43;;;;;;;;;;5059487;28;20102;-71